ENST/SSJ METAR and TAF weather

Enter ICAO airport designator
Station Type Date Time Source
ENST METAR 2019/02/23 19:20 UTC NOAA

ENST 231920Z 18019KT 9999 FEW005 SCT008 BKN011 07/05 Q1020 RMK WIND 300FT 18021KT


Station Type Date Time Source
ENST Decoded METAR 2019/02/23 19:20 UTC NOAA

Sandnessjoen / Stokka, Norway (ENST) 65-58N 012-28E 17M
Feb 23, 2019 - 02:20 PM EST / 2019.02.23 1920 UTC
Wind: from the S (180 degrees) at 22 MPH (19 KT):0
Visibility: greater than 7 mile(s):0
Sky conditions: mostly cloudy
Temperature: 44 F (7 C)
Dew Point: 41 F (5 C)
Relative Humidity: 87%
Pressure (altimeter): 30.12 in. Hg (1020 hPa)
ob: ENST 231920Z 18019KT 9999 FEW005 SCT008 BKN011 07/05 Q1020 RMK WIND 300FT 18021KT
cycle: 19

Station Type Date Time Source
ENST TAF UTC NOAA

Error!


Example: see airport list